sensor_id;sensor_type;location;lat;lon;timestamp;P1;durP1;ratioP1;P2;durP2;ratioP2
25481;SDS011;13395;50.752;4.268;2023-01-19T00:02:18;35.88;;;17.58;;
25481;SDS011;13395;50.752;4.268;2023-01-19T00:04:44;40.88;;;18.35;;
25481;SDS011;13395;50.752;4.268;2023-01-19T00:07:10;36.90;;;17.58;;
25481;SDS011;13395;50.752;4.268;2023-01-19T00:09:35;37.35;;;18.15;;
25481;SDS011;13395;50.752;4.268;2023-01-19T00:12:02;37.22;;;18.10;;
25481;SDS011;13395;50.752;4.268;2023-01-19T00:14:29;49.13;;;19.38;;
25481;SDS011;13395;50.752;4.268;2023-01-19T00:16:54;35.90;;;17.67;;
25481;SDS011;13395;50.752;4.268;2023-01-19T00:19:20;35.10;;;18.80;;
25481;SDS011;13395;50.752;4.268;2023-01-19T00:21:45;37.67;;;18.42;;
25481;SDS011;13395;50.752;4.268;2023-01-19T00:24:11;38.15;;;18.92;;
25481;SDS011;13395;50.752;4.268;2023-01-19T00:26:38;37.55;;;18.70;;
25481;SDS011;13395;50.752;4.268;2023-01-19T00:29:04;37.17;;;17.05;;
25481;SDS011;13395;50.752;4.268;2023-01-19T00:31:32;36.65;;;16.90;;
25481;SDS011;13395;50.752;4.268;2023-01-19T00:33:58;44.50;;;19.38;;
25481;SDS011;13395;50.752;4.268;2023-01-19T00:36:24;38.03;;;17.98;;
25481;SDS011;13395;50.752;4.268;2023-01-19T00:38:49;33.30;;;16.15;;
25481;SDS011;13395;50.752;4.268;2023-01-19T00:41:15;39.95;;;18.85;;
25481;SDS011;13395;50.752;4.268;2023-01-19T00:43:41;31.85;;;15.40;;
25481;SDS011;13395;50.752;4.268;2023-01-19T00:46:07;34.40;;;17.42;;
25481;SDS011;13395;50.752;4.268;2023-01-19T00:48:33;38.88;;;18.27;;
25481;SDS011;13395;50.752;4.268;2023-01-19T00:50:58;39.83;;;18.23;;
25481;SDS011;13395;50.752;4.268;2023-01-19T00:53:24;32.75;;;16.10;;
25481;SDS011;13395;50.752;4.268;2023-01-19T00:55:52;35.17;;;18.35;;
25481;SDS011;13395;50.752;4.268;2023-01-19T00:58:18;36.08;;;17.88;;
25481;SDS011;13395;50.752;4.268;2023-01-19T01:00:46;33.20;;;17.63;;
25481;SDS011;13395;50.752;4.268;2023-01-19T01:03:12;38.85;;;17.60;;
25481;SDS011;13395;50.752;4.268;2023-01-19T01:05:39;40.17;;;18.33;;
25481;SDS011;13395;50.752;4.268;2023-01-19T01:08:06;39.53;;;17.85;;
25481;SDS011;13395;50.752;4.268;2023-01-19T01:10:31;39.10;;;18.20;;
25481;SDS011;13395;50.752;4.268;2023-01-19T01:12:57;41.00;;;17.23;;
25481;SDS011;13395;50.752;4.268;2023-01-19T01:15:23;34.70;;;18.50;;
25481;SDS011;13395;50.752;4.268;2023-01-19T01:17:50;34.03;;;17.13;;
25481;SDS011;13395;50.752;4.268;2023-01-19T01:20:18;38.67;;;18.15;;
25481;SDS011;13395;50.752;4.268;2023-01-19T01:22:46;34.83;;;16.40;;
25481;SDS011;13395;50.752;4.268;2023-01-19T01:25:14;32.70;;;16.02;;
25481;SDS011;13395;50.752;4.268;2023-01-19T01:27:41;34.95;;;15.75;;
25481;SDS011;13395;50.752;4.268;2023-01-19T01:30:08;31.38;;;16.42;;
25481;SDS011;13395;50.752;4.268;2023-01-19T01:32:35;37.08;;;17.60;;
25481;SDS011;13395;50.752;4.268;2023-01-19T01:35:01;40.67;;;16.13;;
25481;SDS011;13395;50.752;4.268;2023-01-19T01:37:27;37.47;;;16.38;;
25481;SDS011;13395;50.752;4.268;2023-01-19T01:39:52;36.80;;;16.85;;
25481;SDS011;13395;50.752;4.268;2023-01-19T01:42:19;35.10;;;17.55;;
25481;SDS011;13395;50.752;4.268;2023-01-19T01:44:50;36.85;;;16.02;;
25481;SDS011;13395;50.752;4.268;2023-01-19T01:50:21;38.47;;;16.83;;
25481;SDS011;13395;50.752;4.268;2023-01-19T01:53:00;35.15;;;16.88;;
25481;SDS011;13395;50.752;4.268;2023-01-19T01:55:29;34.88;;;14.32;;
25481;SDS011;13395;50.752;4.268;2023-01-19T01:57:57;35.40;;;15.93;;
25481;SDS011;13395;50.752;4.268;2023-01-19T02:00:28;44.25;;;17.20;;
25481;SDS011;13395;50.752;4.268;2023-01-19T02:03:14;31.38;;;16.65;;
25481;SDS011;13395;50.752;4.268;2023-01-19T02:05:40;33.78;;;16.10;;
25481;SDS011;13395;50.752;4.268;2023-01-19T02:08:07;35.88;;;17.38;;
25481;SDS011;13395;50.752;4.268;2023-01-19T02:10:53;37.58;;;15.40;;
25481;SDS011;13395;50.752;4.268;2023-01-19T02:13:38;39.53;;;16.27;;
25481;SDS011;13395;50.752;4.268;2023-01-19T02:16:10;38.67;;;16.63;;
25481;SDS011;13395;50.752;4.268;2023-01-19T02:18:37;34.30;;;15.63;;
25481;SDS011;13395;50.752;4.268;2023-01-19T02:23:53;35.40;;;14.70;;
25481;SDS011;13395;50.752;4.268;2023-01-19T02:28:53;38.45;;;18.20;;
25481;SDS011;13395;50.752;4.268;2023-01-19T02:31:22;33.40;;;15.77;;
25481;SDS011;13395;50.752;4.268;2023-01-19T02:33:49;36.72;;;15.13;;
25481;SDS011;13395;50.752;4.268;2023-01-19T02:36:15;37.05;;;17.15;;
25481;SDS011;13395;50.752;4.268;2023-01-19T02:38:45;37.60;;;17.55;;
25481;SDS011;13395;50.752;4.268;2023-01-19T02:41:14;43.40;;;16.83;;
25481;SDS011;13395;50.752;4.268;2023-01-19T02:43:43;36.55;;;18.30;;
25481;SDS011;13395;50.752;4.268;2023-01-19T02:46:12;37.45;;;17.77;;
25481;SDS011;13395;50.752;4.268;2023-01-19T02:48:39;32.95;;;16.05;;
25481;SDS011;13395;50.752;4.268;2023-01-19T02:51:13;39.33;;;17.10;;
25481;SDS011;13395;50.752;4.268;2023-01-19T03:02:09;36.15;;;16.10;;
25481;SDS011;13395;50.752;4.268;2023-01-19T03:18:50;37.13;;;14.38;;
25481;SDS011;13395;50.752;4.268;2023-01-19T03:21:18;38.25;;;16.50;;
25481;SDS011;13395;50.752;4.268;2023-01-19T03:23:49;37.33;;;16.73;;
25481;SDS011;13395;50.752;4.268;2023-01-19T03:26:21;34.42;;;15.73;;
25481;SDS011;13395;50.752;4.268;2023-01-19T03:28:50;34.75;;;15.32;;
25481;SDS011;13395;50.752;4.268;2023-01-19T03:31:18;39.00;;;15.82;;
25481;SDS011;13395;50.752;4.268;2023-01-19T03:33:48;39.15;;;15.65;;
25481;SDS011;13395;50.752;4.268;2023-01-19T03:36:18;40.45;;;17.05;;
25481;SDS011;13395;50.752;4.268;2023-01-19T03:39:00;40.90;;;16.30;;
25481;SDS011;13395;50.752;4.268;2023-01-19T03:41:27;38.13;;;15.43;;
25481;SDS011;13395;50.752;4.268;2023-01-19T03:43:56;38.20;;;15.63;;
25481;SDS011;13395;50.752;4.268;2023-01-19T03:46:22;40.22;;;18.02;;
25481;SDS011;13395;50.752;4.268;2023-01-19T03:48:50;35.83;;;17.92;;
25481;SDS011;13395;50.752;4.268;2023-01-19T03:51:16;47.30;;;18.50;;
25481;SDS011;13395;50.752;4.268;2023-01-19T03:53:43;42.00;;;18.23;;
25481;SDS011;13395;50.752;4.268;2023-01-19T03:56:16;38.85;;;18.40;;
25481;SDS011;13395;50.752;4.268;2023-01-19T03:58:42;40.35;;;16.98;;
25481;SDS011;13395;50.752;4.268;2023-01-19T04:01:07;37.55;;;16.95;;
25481;SDS011;13395;50.752;4.268;2023-01-19T04:03:33;51.10;;;18.15;;
25481;SDS011;13395;50.752;4.268;2023-01-19T04:05:59;39.17;;;17.42;;
25481;SDS011;13395;50.752;4.268;2023-01-19T04:08:24;36.53;;;15.88;;
25481;SDS011;13395;50.752;4.268;2023-01-19T04:10:50;44.72;;;17.23;;
25481;SDS011;13395;50.752;4.268;2023-01-19T04:13:15;41.55;;;16.38;;
25481;SDS011;13395;50.752;4.268;2023-01-19T04:15:41;50.72;;;18.98;;
25481;SDS011;13395;50.752;4.268;2023-01-19T04:18:07;37.70;;;16.77;;
25481;SDS011;13395;50.752;4.268;2023-01-19T04:20:33;51.22;;;19.88;;
25481;SDS011;13395;50.752;4.268;2023-01-19T04:22:59;42.55;;;18.20;;
25481;SDS011;13395;50.752;4.268;2023-01-19T04:25:25;42.60;;;18.38;;
25481;SDS011;13395;50.752;4.268;2023-01-19T04:27:52;46.30;;;18.17;;
25481;SDS011;13395;50.752;4.268;2023-01-19T04:30:18;33.10;;;16.75;;
25481;SDS011;13395;50.752;4.268;2023-01-19T04:32:44;40.10;;;16.17;;
25481;SDS011;13395;50.752;4.268;2023-01-19T04:35:10;43.80;;;18.80;;
25481;SDS011;13395;50.752;4.268;2023-01-19T04:37:36;44.65;;;18.73;;
25481;SDS011;13395;50.752;4.268;2023-01-19T04:40:02;50.95;;;20.15;;
25481;SDS011;13395;50.752;4.268;2023-01-19T04:42:28;50.58;;;19.23;;
25481;SDS011;13395;50.752;4.268;2023-01-19T04:44:53;48.42;;;20.60;;
25481;SDS011;13395;50.752;4.268;2023-01-19T04:47:19;43.38;;;19.55;;
25481;SDS011;13395;50.752;4.268;2023-01-19T04:49:44;50.20;;;18.67;;
25481;SDS011;13395;50.752;4.268;2023-01-19T04:52:10;47.47;;;18.77;;
25481;SDS011;13395;50.752;4.268;2023-01-19T04:54:36;50.10;;;20.38;;
25481;SDS011;13395;50.752;4.268;2023-01-19T04:57:01;50.50;;;17.65;;
25481;SDS011;13395;50.752;4.268;2023-01-19T04:59:27;52.17;;;20.52;;
25481;SDS011;13395;50.752;4.268;2023-01-19T05:01:52;56.75;;;22.42;;
25481;SDS011;13395;50.752;4.268;2023-01-19T05:04:18;57.25;;;22.17;;
25481;SDS011;13395;50.752;4.268;2023-01-19T05:06:46;60.13;;;25.25;;
25481;SDS011;13395;50.752;4.268;2023-01-19T05:09:12;57.22;;;23.08;;
25481;SDS011;13395;50.752;4.268;2023-01-19T05:11:39;60.25;;;21.08;;
25481;SDS011;13395;50.752;4.268;2023-01-19T05:14:05;58.70;;;20.48;;
25481;SDS011;13395;50.752;4.268;2023-01-19T05:16:31;45.58;;;19.90;;
25481;SDS011;13395;50.752;4.268;2023-01-19T05:18:58;58.75;;;21.20;;
25481;SDS011;13395;50.752;4.268;2023-01-19T05:21:24;48.13;;;20.33;;
25481;SDS011;13395;50.752;4.268;2023-01-19T05:23:49;57.70;;;20.98;;
25481;SDS011;13395;50.752;4.268;2023-01-19T05:26:15;44.35;;;20.38;;
25481;SDS011;13395;50.752;4.268;2023-01-19T05:28:41;47.45;;;19.30;;
25481;SDS011;13395;50.752;4.268;2023-01-19T05:31:06;50.45;;;21.45;;
25481;SDS011;13395;50.752;4.268;2023-01-19T05:33:32;46.78;;;19.98;;
25481;SDS011;13395;50.752;4.268;2023-01-19T05:35:57;42.00;;;18.23;;
25481;SDS011;13395;50.752;4.268;2023-01-19T05:38:23;41.70;;;17.15;;
25481;SDS011;13395;50.752;4.268;2023-01-19T05:40:49;43.50;;;17.88;;
25481;SDS011;13395;50.752;4.268;2023-01-19T05:43:21;35.42;;;16.58;;
25481;SDS011;13395;50.752;4.268;2023-01-19T05:45:49;49.92;;;20.75;;
25481;SDS011;13395;50.752;4.268;2023-01-19T05:48:15;38.42;;;17.42;;
25481;SDS011;13395;50.752;4.268;2023-01-19T05:50:40;51.58;;;17.63;;
25481;SDS011;13395;50.752;4.268;2023-01-19T05:53:06;40.58;;;16.48;;
25481;SDS011;13395;50.752;4.268;2023-01-19T05:55:32;46.53;;;19.75;;
25481;SDS011;13395;50.752;4.268;2023-01-19T05:57:58;41.28;;;18.20;;
25481;SDS011;13395;50.752;4.268;2023-01-19T06:00:23;45.90;;;19.65;;
25481;SDS011;13395;50.752;4.268;2023-01-19T06:02:51;39.67;;;17.77;;
25481;SDS011;13395;50.752;4.268;2023-01-19T06:05:17;32.50;;;14.40;;
25481;SDS011;13395;50.752;4.268;2023-01-19T06:07:43;47.10;;;19.27;;
25481;SDS011;13395;50.752;4.268;2023-01-19T06:10:09;42.92;;;18.52;;
25481;SDS011;13395;50.752;4.268;2023-01-19T06:12:35;45.13;;;19.17;;
25481;SDS011;13395;50.752;4.268;2023-01-19T06:15:01;43.03;;;18.63;;
25481;SDS011;13395;50.752;4.268;2023-01-19T06:17:27;43.80;;;18.95;;
25481;SDS011;13395;50.752;4.268;2023-01-19T06:19:52;38.20;;;16.48;;
25481;SDS011;13395;50.752;4.268;2023-01-19T06:22:18;43.40;;;17.80;;
25481;SDS011;13395;50.752;4.268;2023-01-19T06:24:43;44.38;;;20.13;;
25481;SDS011;13395;50.752;4.268;2023-01-19T06:27:09;57.60;;;20.15;;
25481;SDS011;13395;50.752;4.268;2023-01-19T06:29:35;44.00;;;19.85;;
25481;SDS011;13395;50.752;4.268;2023-01-19T06:32:00;45.38;;;18.73;;
25481;SDS011;13395;50.752;4.268;2023-01-19T06:34:26;47.38;;;19.63;;
25481;SDS011;13395;50.752;4.268;2023-01-19T06:36:54;50.72;;;18.73;;
25481;SDS011;13395;50.752;4.268;2023-01-19T06:39:20;53.60;;;21.15;;
25481;SDS011;13395;50.752;4.268;2023-01-19T06:41:45;48.97;;;19.00;;
25481;SDS011;13395;50.752;4.268;2023-01-19T06:44:11;48.25;;;20.77;;
25481;SDS011;13395;50.752;4.268;2023-01-19T06:46:37;59.97;;;21.38;;
25481;SDS011;13395;50.752;4.268;2023-01-19T06:49:02;54.97;;;18.67;;
25481;SDS011;13395;50.752;4.268;2023-01-19T06:51:28;45.22;;;20.60;;
25481;SDS011;13395;50.752;4.268;2023-01-19T06:53:56;60.85;;;21.63;;
25481;SDS011;13395;50.752;4.268;2023-01-19T06:56:23;53.47;;;18.70;;
25481;SDS011;13395;50.752;4.268;2023-01-19T06:58:48;52.92;;;20.05;;
25481;SDS011;13395;50.752;4.268;2023-01-19T07:01:14;51.92;;;20.52;;
25481;SDS011;13395;50.752;4.268;2023-01-19T07:03:40;50.13;;;18.23;;
25481;SDS011;13395;50.752;4.268;2023-01-19T07:06:06;51.30;;;19.95;;
25481;SDS011;13395;50.752;4.268;2023-01-19T07:08:32;53.30;;;21.35;;
25481;SDS011;13395;50.752;4.268;2023-01-19T07:10:59;47.85;;;17.98;;
25481;SDS011;13395;50.752;4.268;2023-01-19T07:13:27;48.33;;;20.10;;
25481;SDS011;13395;50.752;4.268;2023-01-19T07:15:53;49.42;;;20.75;;
25481;SDS011;13395;50.752;4.268;2023-01-19T07:18:18;48.75;;;20.77;;
25481;SDS011;13395;50.752;4.268;2023-01-19T07:20:44;51.90;;;21.02;;
25481;SDS011;13395;50.752;4.268;2023-01-19T07:23:15;49.03;;;19.38;;
25481;SDS011;13395;50.752;4.268;2023-01-19T07:25:44;55.65;;;20.48;;
25481;SDS011;13395;50.752;4.268;2023-01-19T07:28:10;49.85;;;20.70;;
25481;SDS011;13395;50.752;4.268;2023-01-19T07:30:39;59.15;;;20.30;;
25481;SDS011;13395;50.752;4.268;2023-01-19T07:33:05;48.88;;;20.00;;
25481;SDS011;13395;50.752;4.268;2023-01-19T07:35:31;48.78;;;21.70;;
25481;SDS011;13395;50.752;4.268;2023-01-19T07:37:57;51.05;;;20.85;;
25481;SDS011;13395;50.752;4.268;2023-01-19T07:40:23;60.45;;;22.10;;
25481;SDS011;13395;50.752;4.268;2023-01-19T07:42:48;57.47;;;21.35;;
25481;SDS011;13395;50.752;4.268;2023-01-19T07:45:16;53.38;;;20.80;;
25481;SDS011;13395;50.752;4.268;2023-01-19T07:47:42;45.83;;;19.15;;
25481;SDS011;13395;50.752;4.268;2023-01-19T07:50:09;50.28;;;20.85;;
25481;SDS011;13395;50.752;4.268;2023-01-19T07:52:36;53.83;;;20.73;;
25481;SDS011;13395;50.752;4.268;2023-01-19T07:55:02;48.92;;;19.92;;
25481;SDS011;13395;50.752;4.268;2023-01-19T07:57:27;55.20;;;20.52;;
25481;SDS011;13395;50.752;4.268;2023-01-19T07:59:53;55.78;;;21.50;;
25481;SDS011;13395;50.752;4.268;2023-01-19T08:02:19;59.33;;;19.70;;
25481;SDS011;13395;50.752;4.268;2023-01-19T08:04:46;65.40;;;21.92;;
25481;SDS011;13395;50.752;4.268;2023-01-19T08:07:12;54.47;;;20.15;;
25481;SDS011;13395;50.752;4.268;2023-01-19T08:09:37;52.25;;;21.25;;
25481;SDS011;13395;50.752;4.268;2023-01-19T08:12:03;51.90;;;19.83;;
25481;SDS011;13395;50.752;4.268;2023-01-19T08:14:29;50.63;;;19.60;;
25481;SDS011;13395;50.752;4.268;2023-01-19T08:16:57;45.20;;;18.45;;
25481;SDS011;13395;50.752;4.268;2023-01-19T08:19:27;52.90;;;20.33;;
25481;SDS011;13395;50.752;4.268;2023-01-19T08:21:53;52.47;;;18.65;;
25481;SDS011;13395;50.752;4.268;2023-01-19T08:24:20;60.97;;;20.35;;
25481;SDS011;13395;50.752;4.268;2023-01-19T08:26:48;53.95;;;19.63;;
25481;SDS011;13395;50.752;4.268;2023-01-19T08:29:13;44.15;;;18.73;;
25481;SDS011;13395;50.752;4.268;2023-01-19T08:31:39;47.10;;;20.77;;
25481;SDS011;13395;50.752;4.268;2023-01-19T08:34:05;56.90;;;21.02;;
25481;SDS011;13395;50.752;4.268;2023-01-19T08:36:31;50.90;;;20.20;;
25481;SDS011;13395;50.752;4.268;2023-01-19T08:38:57;59.47;;;18.70;;
25481;SDS011;13395;50.752;4.268;2023-01-19T08:41:22;52.28;;;19.10;;
25481;SDS011;13395;50.752;4.268;2023-01-19T08:43:48;56.55;;;19.80;;
25481;SDS011;13395;50.752;4.268;2023-01-19T08:46:14;48.72;;;19.08;;
25481;SDS011;13395;50.752;4.268;2023-01-19T08:48:41;41.78;;;17.20;;
25481;SDS011;13395;50.752;4.268;2023-01-19T08:51:09;47.13;;;18.92;;
25481;SDS011;13395;50.752;4.268;2023-01-19T08:53:36;50.88;;;19.13;;
25481;SDS011;13395;50.752;4.268;2023-01-19T08:56:02;50.80;;;18.38;;
25481;SDS011;13395;50.752;4.268;2023-01-19T08:58:28;49.88;;;19.95;;
25481;SDS011;13395;50.752;4.268;2023-01-19T09:00:53;61.90;;;17.90;;
25481;SDS011;13395;50.752;4.268;2023-01-19T09:03:20;51.20;;;18.35;;
25481;SDS011;13395;50.752;4.268;2023-01-19T09:05:46;50.83;;;19.52;;
25481;SDS011;13395;50.752;4.268;2023-01-19T09:08:13;59.10;;;21.38;;
25481;SDS011;13395;50.752;4.268;2023-01-19T09:10:42;53.25;;;18.88;;
25481;SDS011;13395;50.752;4.268;2023-01-19T09:15:39;48.22;;;17.08;;
25481;SDS011;13395;50.752;4.268;2023-01-19T09:18:08;42.50;;;16.65;;
25481;SDS011;13395;50.752;4.268;2023-01-19T09:20:37;42.75;;;17.02;;
25481;SDS011;13395;50.752;4.268;2023-01-19T09:23:04;41.00;;;17.08;;
25481;SDS011;13395;50.752;4.268;2023-01-19T09:25:30;36.55;;;14.63;;
25481;SDS011;13395;50.752;4.268;2023-01-19T09:27:58;47.33;;;16.45;;
25481;SDS011;13395;50.752;4.268;2023-01-19T09:30:24;43.90;;;15.57;;
25481;SDS011;13395;50.752;4.268;2023-01-19T09:32:49;44.20;;;17.52;;
25481;SDS011;13395;50.752;4.268;2023-01-19T09:35:15;36.58;;;12.25;;
25481;SDS011;13395;50.752;4.268;2023-01-19T09:37:44;48.78;;;17.17;;
25481;SDS011;13395;50.752;4.268;2023-01-19T09:40:11;44.63;;;15.45;;
25481;SDS011;13395;50.752;4.268;2023-01-19T09:42:42;39.53;;;17.13;;
25481;SDS011;13395;50.752;4.268;2023-01-19T09:45:21;47.03;;;17.17;;
25481;SDS011;13395;50.752;4.268;2023-01-19T09:48:09;41.38;;;15.48;;
25481;SDS011;13395;50.752;4.268;2023-01-19T09:51:01;37.78;;;15.85;;
25481;SDS011;13395;50.752;4.268;2023-01-19T09:53:51;39.03;;;15.82;;
25481;SDS011;13395;50.752;4.268;2023-01-19T09:56:20;34.58;;;13.38;;
25481;SDS011;13395;50.752;4.268;2023-01-19T09:58:47;46.40;;;17.00;;
25481;SDS011;13395;50.752;4.268;2023-01-19T10:07:56;43.20;;;15.77;;
25481;SDS011;13395;50.752;4.268;2023-01-19T10:10:17;43.13;;;16.63;;
25481;SDS011;13395;50.752;4.268;2023-01-19T10:13:07;41.10;;;16.00;;
25481;SDS011;13395;50.752;4.268;2023-01-19T10:18:46;33.50;;;14.63;;
25481;SDS011;13395;50.752;4.268;2023-01-19T10:21:29;35.60;;;13.68;;
25481;SDS011;13395;50.752;4.268;2023-01-19T10:24:03;49.47;;;16.60;;
25481;SDS011;13395;50.752;4.268;2023-01-19T10:26:36;36.42;;;14.60;;
25481;SDS011;13395;50.752;4.268;2023-01-19T10:29:51;45.58;;;16.02;;
25481;SDS011;13395;50.752;4.268;2023-01-19T10:32:02;42.65;;;16.02;;
25481;SDS011;13395;50.752;4.268;2023-01-19T10:34:33;36.92;;;15.45;;
25481;SDS011;13395;50.752;4.268;2023-01-19T10:42:30;39.42;;;15.52;;
25481;SDS011;13395;50.752;4.268;2023-01-19T10:44:55;37.15;;;14.35;;
25481;SDS011;13395;50.752;4.268;2023-01-19T10:47:23;35.28;;;14.77;;
25481;SDS011;13395;50.752;4.268;2023-01-19T10:52:32;33.53;;;14.88;;
25481;SDS011;13395;50.752;4.268;2023-01-19T10:55:04;32.65;;;15.65;;
25481;SDS011;13395;50.752;4.268;2023-01-19T10:57:39;38.00;;;15.10;;
25481;SDS011;13395;50.752;4.268;2023-01-19T11:00:30;41.33;;;15.38;;
25481;SDS011;13395;50.752;4.268;2023-01-19T11:02:53;39.38;;;15.65;;
25481;SDS011;13395;50.752;4.268;2023-01-19T11:05:25;35.58;;;16.10;;
25481;SDS011;13395;50.752;4.268;2023-01-19T11:07:53;36.13;;;14.77;;
25481;SDS011;13395;50.752;4.268;2023-01-19T11:12:58;32.45;;;14.82;;
25481;SDS011;13395;50.752;4.268;2023-01-19T11:15:53;36.13;;;14.43;;
25481;SDS011;13395;50.752;4.268;2023-01-19T11:20:57;38.63;;;14.48;;
25481;SDS011;13395;50.752;4.268;2023-01-19T11:25:56;34.90;;;14.00;;
25481;SDS011;13395;50.752;4.268;2023-01-19T11:28:29;33.10;;;14.10;;
25481;SDS011;13395;50.752;4.268;2023-01-19T11:36:20;23.95;;;12.90;;
25481;SDS011;13395;50.752;4.268;2023-01-19T11:39:43;27.23;;;13.70;;
25481;SDS011;13395;50.752;4.268;2023-01-19T11:41:56;33.53;;;14.48;;
25481;SDS011;13395;50.752;4.268;2023-01-19T11:44:32;30.90;;;14.35;;
25481;SDS011;13395;50.752;4.268;2023-01-19T11:47:04;32.15;;;13.38;;
25481;SDS011;13395;50.752;4.268;2023-01-19T11:58:02;23.40;;;13.30;;
25481;SDS011;13395;50.752;4.268;2023-01-19T12:00:35;38.05;;;14.65;;
25481;SDS011;13395;50.752;4.268;2023-01-19T12:05:51;29.60;;;13.55;;
25481;SDS011;13395;50.752;4.268;2023-01-19T12:08:22;26.23;;;12.77;;
25481;SDS011;13395;50.752;4.268;2023-01-19T12:10:51;28.67;;;13.32;;
25481;SDS011;13395;50.752;4.268;2023-01-19T12:13:24;27.02;;;12.15;;
25481;SDS011;13395;50.752;4.268;2023-01-19T12:15:53;22.27;;;13.05;;
25481;SDS011;13395;50.752;4.268;2023-01-19T12:18:27;26.95;;;13.43;;
25481;SDS011;13395;50.752;4.268;2023-01-19T12:20:57;29.80;;;14.93;;
25481;SDS011;13395;50.752;4.268;2023-01-19T12:29:05;30.00;;;13.93;;
25481;SDS011;13395;50.752;4.268;2023-01-19T12:31:35;27.02;;;12.35;;
25481;SDS011;13395;50.752;4.268;2023-01-19T12:36:56;24.13;;;12.95;;
25481;SDS011;13395;50.752;4.268;2023-01-19T12:39:26;26.83;;;13.40;;
25481;SDS011;13395;50.752;4.268;2023-01-19T12:42:34;30.25;;;12.73;;
25481;SDS011;13395;50.752;4.268;2023-01-19T12:44:41;30.83;;;13.10;;
25481;SDS011;13395;50.752;4.268;2023-01-19T12:52:20;26.98;;;13.93;;
25481;SDS011;13395;50.752;4.268;2023-01-19T12:58:01;31.83;;;14.82;;
25481;SDS011;13395;50.752;4.268;2023-01-19T13:00:48;29.90;;;12.60;;
25481;SDS011;13395;50.752;4.268;2023-01-19T13:05:54;34.28;;;14.20;;
25481;SDS011;13395;50.752;4.268;2023-01-19T13:08:22;30.63;;;13.50;;
25481;SDS011;13395;50.752;4.268;2023-01-19T13:13:40;20.75;;;10.77;;
25481;SDS011;13395;50.752;4.268;2023-01-19T13:21:34;21.25;;;11.70;;
25481;SDS011;13395;50.752;4.268;2023-01-19T13:31:43;24.25;;;11.23;;
25481;SDS011;13395;50.752;4.268;2023-01-19T13:34:13;22.85;;;11.07;;
25481;SDS011;13395;50.752;4.268;2023-01-19T13:36:45;17.90;;;10.43;;
25481;SDS011;13395;50.752;4.268;2023-01-19T13:39:34;21.08;;;10.63;;
25481;SDS011;13395;50.752;4.268;2023-01-19T13:42:24;23.85;;;10.95;;
25481;SDS011;13395;50.752;4.268;2023-01-19T13:44:54;18.73;;;11.02;;
25481;SDS011;13395;50.752;4.268;2023-01-19T13:47:28;25.15;;;11.23;;
25481;SDS011;13395;50.752;4.268;2023-01-19T13:50:24;17.27;;;10.35;;
25481;SDS011;13395;50.752;4.268;2023-01-19T13:52:51;21.95;;;11.35;;
25481;SDS011;13395;50.752;4.268;2023-01-19T13:55:19;24.83;;;12.38;;
25481;SDS011;13395;50.752;4.268;2023-01-19T13:57:46;24.48;;;11.13;;
25481;SDS011;13395;50.752;4.268;2023-01-19T14:05:38;17.98;;;11.13;;
25481;SDS011;13395;50.752;4.268;2023-01-19T14:10:58;19.85;;;11.02;;
25481;SDS011;13395;50.752;4.268;2023-01-19T14:13:27;27.42;;;12.38;;
25481;SDS011;13395;50.752;4.268;2023-01-19T14:15:55;25.48;;;10.88;;
25481;SDS011;13395;50.752;4.268;2023-01-19T14:18:24;26.10;;;11.15;;
25481;SDS011;13395;50.752;4.268;2023-01-19T14:20:55;23.63;;;11.43;;
25481;SDS011;13395;50.752;4.268;2023-01-19T14:23:37;23.52;;;12.43;;
25481;SDS011;13395;50.752;4.268;2023-01-19T14:26:53;22.55;;;12.73;;
25481;SDS011;13395;50.752;4.268;2023-01-19T14:36:54;22.05;;;12.07;;
25481;SDS011;13395;50.752;4.268;2023-01-19T14:39:20;22.48;;;12.15;;
25481;SDS011;13395;50.752;4.268;2023-01-19T14:41:49;28.15;;;14.43;;
25481;SDS011;13395;50.752;4.268;2023-01-19T14:44:35;22.90;;;14.20;;
25481;SDS011;13395;50.752;4.268;2023-01-19T14:47:02;27.63;;;14.82;;
25481;SDS011;13395;50.752;4.268;2023-01-19T14:49:31;23.67;;;13.40;;
25481;SDS011;13395;50.752;4.268;2023-01-19T14:52:05;31.40;;;15.68;;
25481;SDS011;13395;50.752;4.268;2023-01-19T14:54:43;37.25;;;16.52;;
25481;SDS011;13395;50.752;4.268;2023-01-19T14:57:11;33.47;;;16.05;;
25481;SDS011;13395;50.752;4.268;2023-01-19T14:59:37;30.92;;;16.02;;
25481;SDS011;13395;50.752;4.268;2023-01-19T15:02:03;34.97;;;15.48;;
25481;SDS011;13395;50.752;4.268;2023-01-19T15:04:29;31.02;;;15.20;;
25481;SDS011;13395;50.752;4.268;2023-01-19T15:06:55;32.50;;;14.50;;
25481;SDS011;13395;50.752;4.268;2023-01-19T15:09:21;29.10;;;14.02;;
25481;SDS011;13395;50.752;4.268;2023-01-19T15:11:47;37.72;;;16.48;;
25481;SDS011;13395;50.752;4.268;2023-01-19T15:14:14;32.38;;;15.45;;
25481;SDS011;13395;50.752;4.268;2023-01-19T15:16:41;35.40;;;15.02;;
25481;SDS011;13395;50.752;4.268;2023-01-19T15:19:14;38.63;;;14.25;;
25481;SDS011;13395;50.752;4.268;2023-01-19T15:21:40;28.30;;;14.15;;
25481;SDS011;13395;50.752;4.268;2023-01-19T15:24:10;25.85;;;13.60;;
25481;SDS011;13395;50.752;4.268;2023-01-19T15:26:38;29.85;;;14.23;;
25481;SDS011;13395;50.752;4.268;2023-01-19T15:29:13;32.35;;;14.15;;
25481;SDS011;13395;50.752;4.268;2023-01-19T15:31:44;27.88;;;13.00;;
25481;SDS011;13395;50.752;4.268;2023-01-19T15:34:10;26.08;;;13.05;;
25481;SDS011;13395;50.752;4.268;2023-01-19T15:36:37;30.33;;;13.50;;
25481;SDS011;13395;50.752;4.268;2023-01-19T15:39:02;36.08;;;12.90;;
25481;SDS011;13395;50.752;4.268;2023-01-19T15:41:28;28.23;;;13.52;;
25481;SDS011;13395;50.752;4.268;2023-01-19T15:43:54;26.38;;;12.85;;
25481;SDS011;13395;50.752;4.268;2023-01-19T15:46:21;28.63;;;12.57;;
25481;SDS011;13395;50.752;4.268;2023-01-19T15:48:50;23.40;;;12.63;;
25481;SDS011;13395;50.752;4.268;2023-01-19T15:51:18;27.25;;;12.02;;
25481;SDS011;13395;50.752;4.268;2023-01-19T15:53:46;27.60;;;12.25;;
25481;SDS011;13395;50.752;4.268;2023-01-19T15:56:22;24.05;;;12.45;;
25481;SDS011;13395;50.752;4.268;2023-01-19T15:58:50;23.65;;;11.65;;
25481;SDS011;13395;50.752;4.268;2023-01-19T16:01:18;29.63;;;12.68;;
25481;SDS011;13395;50.752;4.268;2023-01-19T16:03:46;27.70;;;13.75;;
25481;SDS011;13395;50.752;4.268;2023-01-19T16:06:12;35.15;;;13.57;;
25481;SDS011;13395;50.752;4.268;2023-01-19T16:08:40;23.30;;;12.25;;
25481;SDS011;13395;50.752;4.268;2023-01-19T16:11:07;32.75;;;14.15;;
25481;SDS011;13395;50.752;4.268;2023-01-19T16:13:36;27.05;;;12.52;;
25481;SDS011;13395;50.752;4.268;2023-01-19T16:16:04;29.52;;;13.65;;
25481;SDS011;13395;50.752;4.268;2023-01-19T16:18:32;28.15;;;12.98;;
25481;SDS011;13395;50.752;4.268;2023-01-19T16:20:58;28.45;;;12.57;;
25481;SDS011;13395;50.752;4.268;2023-01-19T16:23:24;31.52;;;13.98;;
25481;SDS011;13395;50.752;4.268;2023-01-19T16:26:03;30.33;;;14.30;;
25481;SDS011;13395;50.752;4.268;2023-01-19T16:28:34;34.72;;;14.23;;
25481;SDS011;13395;50.752;4.268;2023-01-19T16:31:01;30.90;;;15.05;;
25481;SDS011;13395;50.752;4.268;2023-01-19T16:33:27;32.10;;;14.32;;
25481;SDS011;13395;50.752;4.268;2023-01-19T16:35:53;39.05;;;15.82;;
25481;SDS011;13395;50.752;4.268;2023-01-19T16:38:18;26.80;;;14.20;;